Mohrsville, Pennsylvania
Current Conditions -  °F | °C
As of 5:54 AM on Wednesday 26 Nov 2014 (Local Time) from KRDG Reporting Station
Light Rain Light Rain  
Wind Chill: 37°   Ceiling: 4800
Heat Index: 42°   Visibility: 10mi
Dew Point: 32°   Wind: 8mph
Humidity: 67%   Direction: 30°NNE
Pressure: 30.09"   Gusts: NA
Location:  40.47°N, 75.98°W
Report Text: KRDG 261054Z 03007KT 10SM -RA OVC048 06/00 A3009 RMK AO2 RAB42 SLP194 P0000 T00560000
Loading
Personal Weather Stations






























Interactive Weather Map New forecast layout! Learn more

10-Day Weather Forecast

Advertisements
Track Severe Weather on mobile